Time;durP1;ratioP1;P1;durP2;ratioP2;P2;SDS_P1;SDS_P2;PMS_P1;PMS_P2;Temp;Humidity;BMP_temperature;BMP_pressure;BME280_temperature;BME280_humidity;BME280_pressure;Samples;Min_cycle;Max_cycle;Signal;HPM_P1;HPM_P2
2022/10/19 08:14:03;;;;;;;2.83;1.98;;;;;;;19.24;59.13;101492.97;10273279;27;43819;-69
2022/10/19 08:18:56;;;;;;;5.28;2.20;;;;;;;19.21;59.39;101495.44;10260201;27;65609;-69
2022/10/19 08:23:48;;;;;;;2.92;1.50;;;;;;;19.23;59.31;101505.06;10255220;27;65581;-69
2022/10/19 08:28:40;;;;;;;2.30;1.75;;;;;;;19.29;59.16;101500.38;10261671;27;66851;-70
2022/10/19 08:33:34;;;;;;;2.85;1.85;;;;;;;19.29;59.45;101483.88;10259924;27;66478;-69
2022/10/19 08:38:26;;;;;;;4.90;1.90;;;;;;;19.53;58.75;101484.94;10261770;27;65570;-69
2022/10/19 08:43:20;;;;;;;1.65;1.55;;;;;;;19.58;58.67;101476.66;10258521;27;65614;-73
2022/10/19 08:48:22;;;;;;;2.90;1.92;;;;;;;19.77;58.15;101472.22;10258459;27;66398;-72
2022/10/19 08:53:18;;;;;;;3.45;1.90;;;;;;;20.16;56.99;101474.16;10253516;27;65110;-72
2022/10/19 08:58:30;;;;;;;3.13;1.55;;;;;;;20.06;57.48;101460.47;10251754;27;65329;-71
2022/10/19 09:03:24;;;;;;;2.78;1.60;;;;;;;20.08;57.39;101466.53;10253258;27;66328;-74
2022/10/19 09:08:17;;;;;;;2.53;1.80;;;;;;;19.86;58.08;101466.13;10257265;27;66611;-72
2022/10/19 09:13:13;;;;;;;2.42;1.40;;;;;;;19.99;57.79;101458.06;10254645;27;66422;-73
2022/10/19 09:18:08;;;;;;;1.77;1.48;;;;;;;20.05;57.54;101458.84;10257931;27;65654;-73
2022/10/19 09:23:03;;;;;;;2.33;1.67;;;;;;;19.98;57.83;101458.31;10243684;27;66699;-73
2022/10/19 09:28:03;;;;;;;2.33;1.60;;;;;;;20.40;56.89;101455.88;10210110;27;65931;-71
2022/10/19 09:32:59;;;;;;;3.70;1.50;;;;;;;20.44;56.61;101461.63;10229925;27;65571;-74
2022/10/19 09:37:51;;;;;;;2.05;1.50;;;;;;;20.49;56.44;101448.63;10231596;27;66433;-73
2022/10/19 09:42:43;;;;;;;1.50;1.35;;;;;;;20.43;56.75;101446.22;10230520;27;66369;-73
2022/10/19 09:47:36;;;;;;;1.88;1.45;;;;;;;20.46;56.88;101437.34;10227295;27;66345;-73
2022/10/19 09:52:32;;;;;;;1.58;1.30;;;;;;;20.45;56.83;101441.25;10227496;27;65450;-75
2022/10/19 09:57:24;;;;;;;2.22;1.73;;;;;;;20.69;56.40;101447.63;10226474;27;66472;-73
2022/10/19 10:02:17;;;;;;;2.08;1.50;;;;;;;20.46;57.03;101440.94;10225804;27;66742;-72
2022/10/19 10:07:13;;;;;;;1.95;1.45;;;;;;;20.37;57.28;101444.63;10228645;27;66273;-72
2022/10/19 10:12:07;;;;;;;2.40;1.50;;;;;;;20.54;57.08;101443.06;10222979;27;67144;-72
2022/10/19 10:17:01;;;;;;;3.28;1.40;;;;;;;20.31;57.59;101435.50;10228587;27;66520;-71
2022/10/19 10:21:54;;;;;;;1.38;1.20;;;;;;;20.48;57.12;101437.91;10231832;27;65513;-70
2022/10/19 10:26:48;;;;;;;3.85;1.70;;;;;;;21.09;55.10;101431.81;10231996;27;66491;-75
2022/10/19 10:31:40;;;;;;;2.05;1.50;;;;;;;20.81;55.69;101437.06;10227372;27;66398;-74
2022/10/19 10:36:32;;;;;;;3.03;1.48;;;;;;;20.65;56.20;101427.28;10225498;27;66357;-73
2022/10/19 10:41:27;;;;;;;3.30;1.60;;;;;;;20.54;56.62;101423.78;10221689;27;66486;-73
2022/10/19 10:46:23;;;;;;;2.70;1.73;;;;;;;20.61;56.34;101415.19;10228828;27;65716;-71
2022/10/19 10:51:19;;;;;;;1.98;1.50;;;;;;;20.65;56.50;101401.66;10220267;27;65881;-71
2022/10/19 10:56:21;;;;;;;1.80;1.35;;;;;;;20.76;56.30;101403.19;10224766;27;66354;-71
2022/10/19 11:01:16;;;;;;;2.85;1.42;;;;;;;20.70;56.46;101396.91;10224660;27;66256;-73
2022/10/19 11:06:09;;;;;;;1.83;1.40;;;;;;;20.66;56.59;101393.13;10225870;27;66342;-71
2022/10/19 11:11:04;;;;;;;4.13;1.40;;;;;;;20.59;57.07;101384.38;10228200;27;66514;-70
2022/10/19 11:15:58;;;;;;;1.40;1.30;;;;;;;20.47;57.27;101389.41;10227801;27;66150;-71
2022/10/19 11:20:55;;;;;;;2.03;1.45;;;;;;;20.68;56.86;101371.56;10206113;27;65932;-72
2022/10/19 11:25:54;;;;;;;3.50;1.30;;;;;;;20.69;56.87;101375.16;10228164;27;65608;-72
2022/10/19 11:30:51;;;;;;;3.13;1.50;;;;;;;20.70;56.85;101366.59;10225115;27;66509;-72
2022/10/19 11:35:51;;;;;;;2.25;1.30;;;;;;;20.62;57.06;101350.69;10226092;27;66569;-72
2022/10/19 11:40:45;;;;;;;3.70;1.35;;;;;;;20.65;57.10;101343.81;10219588;27;66259;-72
2022/10/19 11:45:45;;;;;;;3.00;1.60;;;;;;;20.54;57.58;101332.88;10226976;27;66310;-72
2022/10/19 11:50:43;;;;;;;1.50;1.27;;;;;;;20.51;57.58;101319.69;10221616;27;66314;-72
2022/10/19 11:55:38;;;;;;;3.10;1.40;;;;;;;20.48;57.76;101328.53;10226141;27;66564;-73
2022/10/19 12:00:30;;;;;;;2.45;1.40;;;;;;;20.74;57.19;101312.56;10226915;27;65620;-74
2022/10/19 12:05:25;;;;;;;2.47;1.50;;;;;;;20.71;57.31;101307.63;10229941;27;66675;-76
2022/10/19 12:10:21;;;;;;;2.60;1.50;;;;;;;20.86;56.94;101295.59;10225532;27;65697;-74
2022/10/19 12:15:18;;;;;;;3.53;1.40;;;;;;;20.90;56.79;101285.63;10225907;27;65405;-73
2022/10/19 12:20:16;;;;;;;1.67;1.40;;;;;;;20.92;56.85;101291.66;10225779;27;65639;-73
2022/10/19 12:25:13;;;;;;;3.65;1.20;;;;;;;21.09;56.52;101288.44;10224902;27;66478;-72
2022/10/19 12:30:07;;;;;;;1.70;1.27;;;;;;;21.04;56.54;101280.22;10219137;27;65612;-73
2022/10/19 12:35:02;;;;;;;1.80;1.25;;;;;;;21.04;56.60;101277.47;10222787;27;66521;-72
2022/10/19 12:39:56;;;;;;;2.92;1.40;;;;;;;20.86;57.33;101270.78;10225243;27;66147;-73
2022/10/19 12:45:02;;;;;;;1.45;1.20;;;;;;;20.87;57.37;101265.00;10226942;27;65693;-70
2022/10/19 12:49:54;;;;;;;2.03;1.13;;;;;;;20.92;57.03;101262.16;10222689;27;66374;-72
2022/10/19 12:54:46;;;;;;;1.42;1.33;;;;;;;21.06;56.67;101255.91;10226243;27;66393;-73
2022/10/19 12:59:38;;;;;;;1.63;1.20;;;;;;;21.19;56.09;101241.44;10233590;27;66397;-71
2022/10/19 13:04:32;;;;;;;1.92;1.25;;;;;;;21.10;56.60;101246.78;10235887;27;66651;-73
2022/10/19 13:09:26;;;;;;;1.20;1.10;;;;;;;21.28;56.01;101240.47;10230482;27;66358;-69
2022/10/19 13:14:42;;;;;;;1.60;1.30;;;;;;;21.20;56.29;101237.56;10230684;27;66295;-70
2022/10/19 13:19:36;;;;;;;1.83;1.40;;;;;;;21.20;56.55;101238.38;10221925;27;66975;-69
2022/10/19 13:24:34;;;;;;;1.45;1.35;;;;;;;21.22;56.47;101221.53;10230691;27;66900;-71
2022/10/19 13:29:27;;;;;;;1.58;1.30;;;;;;;21.21;56.47;101208.84;10227004;27;66342;-73
2022/10/19 13:34:19;;;;;;;1.55;1.35;;;;;;;21.33;56.37;101206.50;10222625;27;66580;-73
2022/10/19 13:39:15;;;;;;;2.20;1.30;;;;;;;21.00;57.28;101196.44;10232351;27;66819;-74
2022/10/19 13:44:18;;;;;;;2.53;1.20;;;;;;;21.05;57.11;101199.94;10229794;27;66293;-75
2022/10/19 13:49:54;;;;;;;1.50;1.40;;;;;;;20.95;57.29;101193.78;10223677;27;66975;-74
2022/10/19 13:55:01;;;;;;;1.27;1.17;;;;;;;20.87;57.67;101189.75;10140128;27;66242;-73
2022/10/19 14:00:09;;;;;;;1.30;1.20;;;;;;;20.84;57.81;101185.63;10225054;27;66322;-75
2022/10/19 14:05:10;;;;;;;3.28;1.20;;;;;;;21.08;57.24;101185.59;10221147;27;66619;-74
2022/10/19 14:10:07;;;;;;;1.45;1.35;;;;;;;21.10;57.25;101169.56;10218575;27;65812;-73
2022/10/19 14:14:59;;;;;;;1.83;1.20;;;;;;;21.00;57.52;101166.94;10220150;27;66163;-72
2022/10/19 14:19:53;;;;;;;3.50;1.10;;;;;;;20.83;58.07;101170.22;10229979;27;66319;-72
2022/10/19 14:24:45;;;;;;;1.58;1.17;;;;;;;20.84;58.06;101166.34;10225919;27;66465;-73
2022/10/19 14:29:45;;;;;;;1.30;1.20;;;;;;;20.88;57.78;101169.34;10229142;27;65887;-74
2022/10/19 14:34:39;;;;;;;1.50;1.40;;;;;;;20.89;57.84;101159.97;10223860;27;65780;-73
2022/10/19 14:39:33;;;;;;;1.65;1.20;;;;;;;20.85;57.93;101148.69;10235006;27;66355;-73
2022/10/19 14:44:34;;;;;;;1.63;1.30;;;;;;;20.88;57.91;101142.59;10221489;27;65311;-73
2022/10/19 14:49:28;;;;;;;1.10;1.00;;;;;;;20.87;58.04;101142.88;10225175;27;66390;-74
2022/10/19 14:54:22;;;;;;;1.00;1.00;;;;;;;21.01;57.77;101143.78;10222385;27;66556;-78
2022/10/19 14:59:19;;;;;;;1.92;1.20;;;;;;;21.11;57.45;101140.88;10228390;27;65922;-73
2022/10/19 15:04:11;;;;;;;1.40;1.15;;;;;;;20.81;58.24;101142.16;10223915;27;66494;-73
2022/10/19 15:09:05;;;;;;;1.83;1.30;;;;;;;21.04;57.58;101153.41;10225444;27;66317;-73
2022/10/19 15:14:00;;;;;;;2.15;1.20;;;;;;;20.87;58.07;101157.50;10226020;27;67465;-72
2022/10/19 15:18:52;;;;;;;1.48;1.38;;;;;;;20.76;58.38;101153.22;10226045;27;65332;-73
2022/10/19 15:23:44;;;;;;;3.05;1.15;;;;;;;20.87;58.07;101153.91;10222728;27;65512;-72
2022/10/19 15:28:38;;;;;;;1.40;1.30;;;;;;;20.74;58.57;101147.22;10224670;27;66772;-76
2022/10/19 15:33:30;;;;;;;1.50;1.20;;;;;;;20.74;58.66;101149.97;10226729;27;65464;-75
2022/10/19 15:38:24;;;;;;;3.38;1.33;;;;;;;20.97;57.72;101139.19;10224949;27;66434;-74
2022/10/19 15:43:47;;;;;;;2.72;1.35;;;;;;;20.87;58.03;101126.34;10223370;27;64737;-71
2022/10/19 15:48:47;;;;;;;2.35;1.55;;;;;;;20.77;58.42;101130.06;10191769;27;66042;-72
2022/10/19 15:53:38;;;;;;;1.63;1.45;;;;;;;20.81;58.16;101122.84;10225940;27;65865;-71
2022/10/19 15:58:30;;;;;;;2.50;1.33;;;;;;;20.81;58.23;101116.53;10229835;27;65611;-71
2022/10/19 16:03:24;;;;;;;1.50;1.35;;;;;;;20.76;58.42;101111.88;10226586;27;66472;-72
2022/10/19 16:08:16;;;;;;;3.05;1.50;;;;;;;20.98;57.52;101107.69;10229436;27;66323;-70
2022/10/19 16:13:08;;;;;;;1.48;1.30;;;;;;;20.69;58.46;101114.19;10225358;27;66054;-70
2022/10/19 16:18:00;;;;;;;2.20;1.25;;;;;;;20.65;58.43;101107.66;10224313;27;66359;-72
2022/10/19 16:22:53;;;;;;;2.22;1.38;;;;;;;20.65;58.53;101106.84;10225196;27;65388;-70
2022/10/19 16:27:45;;;;;;;1.65;1.30;;;;;;;20.60;58.51;101099.44;10202850;27;66071;-71
2022/10/19 16:32:38;;;;;;;1.63;1.52;;;;;;;20.54;58.66;101101.44;10206653;27;65945;-70
2022/10/19 16:37:30;;;;;;;3.63;1.50;;;;;;;20.51;58.89;101098.50;10213401;27;65871;-70
2022/10/19 16:42:24;;;;;;;1.55;1.40;;;;;;;20.40;59.08;101108.81;10231403;27;66014;-71
2022/10/19 16:47:17;;;;;;;1.85;1.20;;;;;;;20.48;58.83;101108.16;10231284;27;66105;-69
2022/10/19 16:52:12;;;;;;;1.40;1.30;;;;;;;20.42;58.94;101105.75;10226567;27;65881;-69
2022/10/19 16:57:04;;;;;;;2.33;1.40;;;;;;;20.42;58.94;101098.31;10229282;27;66632;-70
2022/10/19 17:01:58;;;;;;;1.30;1.20;;;;;;;20.41;58.86;101099.44;10229917;27;66496;-72
2022/10/19 17:06:50;;;;;;;1.92;1.63;;;;;;;20.44;58.68;101106.28;10236070;27;65690;-71
2022/10/19 17:11:42;;;;;;;2.75;1.50;;;;;;;20.36;58.86;101104.19;10229382;27;66089;-70
2022/10/19 17:16:35;;;;;;;1.92;1.50;;;;;;;20.38;58.88;101101.94;10231650;27;65991;-71
2022/10/19 17:21:29;;;;;;;1.58;1.48;;;;;;;20.40;58.86;101086.78;10228549;27;66601;-72
2022/10/19 17:26:25;;;;;;;1.67;1.30;;;;;;;20.32;58.91;101086.56;10231208;27;66390;-71
2022/10/19 17:31:17;;;;;;;1.83;1.50;;;;;;;20.43;58.49;101086.19;10232200;27;66371;-70
2022/10/19 17:36:10;;;;;;;1.67;1.50;;;;;;;20.36;58.80;101093.19;10228539;27;66171;-72
2022/10/19 17:41:05;;;;;;;2.00;1.42;;;;;;;20.38;58.53;101097.25;10226071;27;65898;-70
2022/10/19 17:45:58;;;;;;;4.93;1.60;;;;;;;20.27;58.94;101092.16;10225831;27;66741;-70
2022/10/19 17:50:56;;;;;;;1.65;1.50;;;;;;;20.32;58.73;101092.91;10215762;27;66387;-72
